MROC/SJO METAR and TAF weather

Enter ICAO airport designator
Station Type Date Time Source
MROC METAR 2024/07/12 19:00 UTC NOAA

MROC 121900Z 07014KT 9999 FEW045 SCT120 SCT250 28/18 A3007 NOSIG


Station Type Date Time Source
MROC Decoded METAR 2024/07/12 19:00 UTC NOAA

Juan Santamaria, Costa Rica (MROC) 10-00N 084-13W 939M
Jul 12, 2024 - 03:00 PM EDT / 2024.07.12 1900 UTC
Wind: from the ENE (070 degrees) at 16 MPH (14 KT):0
Visibility: greater than 7 mile(s):0
Sky conditions: partly cloudy
Temperature: 82 F (28 C)
Dew Point: 64 F (18 C)
Relative Humidity: 54%
Pressure (altimeter): 30.07 in. Hg (1018 hPa)
ob: MROC 121900Z 07014KT 9999 FEW045 SCT120 SCT250 28/18 A3007 NOSIG
cycle: 19

Station Type Date Time Source
MROC TAF 2024/07/12 18:57 UTC NOAA